Time;durP1;ratioP1;P1;durP2;ratioP2;P2;SDS_P1;SDS_P2;PMS_P1;PMS_P2;Temp;Humidity;BMP_temperature;BMP_pressure;BME280_temperature;BME280_humidity;BME280_pressure;Samples;Min_cycle;Max_cycle;Signal;HPM_P1;HPM_P2
2022/03/27 00:01:43;;;;;;;39.70;36.40;;;;;;;;;;4957767;29;20941;-91
2022/03/27 00:04:12;;;;;;;37.07;34.03;;;;;;;;;;4957573;29;20454;-91
2022/03/27 00:06:40;;;;;;;38.27;34.83;;;;;;;;;;4956997;29;20435;-90
2022/03/27 00:09:07;;;;;;;36.50;33.57;;;;;;;;;;4957328;29;20419;-91
2022/03/27 00:11:35;;;;;;;38.10;35.00;;;;;;;;;;4957196;29;20443;-90
2022/03/27 00:14:03;;;;;;;38.47;35.10;;;;;;;;;;4957373;29;20472;-91
2022/03/27 00:16:31;;;;;;;34.40;31.50;;;;;;;;;;4957038;29;20456;-91
2022/03/27 00:18:59;;;;;;;39.07;35.37;;;;;;;;;;4956973;29;20434;-91
2022/03/27 00:21:28;;;;;;;36.00;33.00;;;;;;;;;;4956705;29;20419;-91
2022/03/27 00:23:56;;;;;;;38.70;35.57;;;;;;;;;;4957100;29;20485;-92
2022/03/27 00:26:23;;;;;;;34.97;32.13;;;;;;;;;;4940331;29;20470;-92
2022/03/27 00:28:51;;;;;;;35.03;31.80;;;;;;;;;;4957132;29;20414;-91
2022/03/27 00:31:19;;;;;;;35.47;32.43;;;;;;;;;;4957115;29;20423;-91
2022/03/27 00:33:47;;;;;;;35.37;32.23;;;;;;;;;;4956123;28;20457;-92
2022/03/27 00:36:17;;;;;;;34.23;31.40;;;;;;;;;;4956553;29;20554;-91
2022/03/27 00:38:46;;;;;;;34.30;31.57;;;;;;;;;;4956578;29;20482;-90
2022/03/27 00:41:15;;;;;;;33.60;30.90;;;;;;;;;;4956743;29;20785;-91
2022/03/27 00:43:43;;;;;;;35.57;32.47;;;;;;;;;;4956181;29;20565;-91
2022/03/27 00:46:11;;;;;;;34.33;31.40;;;;;;;;;;4956551;29;20466;-91
2022/03/27 00:48:38;;;;;;;33.43;30.60;;;;;;;;;;4956339;29;20558;-91
2022/03/27 00:51:06;;;;;;;30.80;28.50;;;;;;;;;;4956868;29;20409;-91
2022/03/27 00:53:33;;;;;;;31.07;28.43;;;;;;;;;;4956602;28;20472;-92
2022/03/27 00:56:02;;;;;;;32.57;30.00;;;;;;;;;;4956704;29;20418;-90
2022/03/27 00:58:30;;;;;;;32.90;30.03;;;;;;;;;;4956796;29;20430;-91
2022/03/27 01:00:58;;;;;;;31.80;29.30;;;;;;;;;;4956495;29;20444;-91
2022/03/27 01:03:26;;;;;;;34.33;31.37;;;;;;;;;;4955858;29;20496;-91
2022/03/27 01:05:57;;;;;;;35.30;32.13;;;;;;;;;;4956061;29;20494;-91
2022/03/27 01:11:14;;;;;;;35.70;32.30;;;;;;;;;;4926912;29;20790;-91
2022/03/27 01:13:43;;;;;;;33.37;30.37;;;;;;;;;;4939168;29;20426;-90
2022/03/27 01:16:19;;;;;;;33.77;31.07;;;;;;;;;;4939081;29;20465;-92
2022/03/27 01:18:46;;;;;;;34.70;31.60;;;;;;;;;;4956396;29;20779;-92
2022/03/27 01:21:15;;;;;;;35.03;31.93;;;;;;;;;;4956329;29;20462;-91
2022/03/27 01:23:43;;;;;;;35.20;32.20;;;;;;;;;;4956204;29;20487;-91
2022/03/27 01:26:10;;;;;;;35.00;32.10;;;;;;;;;;4955683;29;21141;-91
2022/03/27 01:28:38;;;;;;;36.83;33.40;;;;;;;;;;4955740;29;20417;-91
2022/03/27 01:31:08;;;;;;;36.60;33.17;;;;;;;;;;4955900;29;20423;-91
2022/03/27 01:33:35;;;;;;;35.33;32.33;;;;;;;;;;4955913;29;20435;-91
2022/03/27 01:36:03;;;;;;;36.43;33.23;;;;;;;;;;4956131;29;20455;-92
2022/03/27 01:38:32;;;;;;;37.57;33.87;;;;;;;;;;4955958;29;20418;-90
2022/03/27 01:40:59;;;;;;;37.40;33.90;;;;;;;;;;4956053;29;20786;-92
2022/03/27 01:43:26;;;;;;;37.00;33.67;;;;;;;;;;4956275;29;20453;-91
2022/03/27 01:45:54;;;;;;;36.33;32.70;;;;;;;;;;4957771;28;20454;-91
2022/03/27 01:48:21;;;;;;;37.53;33.93;;;;;;;;;;4959744;29;20491;-93
2022/03/27 01:50:58;;;;;;;37.10;33.83;;;;;;;;;;4960069;29;20438;-91
2022/03/27 01:53:26;;;;;;;38.10;34.50;;;;;;;;;;4959834;28;20554;-90
2022/03/27 01:55:54;;;;;;;36.30;32.97;;;;;;;;;;4960005;29;20430;-91
2022/03/27 01:58:22;;;;;;;40.00;36.00;;;;;;;;;;4942622;29;20427;-91
2022/03/27 02:00:50;;;;;;;38.70;35.10;;;;;;;;;;4959898;29;20438;-91
2022/03/27 02:03:17;;;;;;;39.10;35.00;;;;;;;;;;4959760;29;20462;-91
2022/03/27 02:05:45;;;;;;;38.33;34.43;;;;;;;;;;4942524;29;20493;-90
2022/03/27 02:08:13;;;;;;;40.33;36.33;;;;;;;;;;4959670;29;20425;-90
2022/03/27 02:10:41;;;;;;;39.50;35.50;;;;;;;;;;4959819;29;20456;-91
2022/03/27 02:13:15;;;;;;;39.07;35.20;;;;;;;;;;4959653;29;20534;-92
2022/03/27 02:15:42;;;;;;;38.33;34.20;;;;;;;;;;4959213;29;20431;-90
2022/03/27 02:18:10;;;;;;;39.23;35.23;;;;;;;;;;4959213;29;20937;-88
2022/03/27 02:20:39;;;;;;;40.60;36.50;;;;;;;;;;4959615;29;20434;-92
2022/03/27 02:23:07;;;;;;;40.77;36.77;;;;;;;;;;4959463;29;20410;-91
2022/03/27 02:25:35;;;;;;;40.03;35.53;;;;;;;;;;4958602;29;20976;-90
2022/03/27 02:28:02;;;;;;;40.17;36.27;;;;;;;;;;4941350;29;20477;-90
2022/03/27 02:30:31;;;;;;;40.27;35.70;;;;;;;;;;4958675;29;20767;-90
2022/03/27 02:32:59;;;;;;;38.40;34.50;;;;;;;;;;4958716;29;20422;-90
2022/03/27 02:35:26;;;;;;;41.43;37.20;;;;;;;;;;4959153;29;20455;-91
2022/03/27 02:37:54;;;;;;;40.90;36.80;;;;;;;;;;4941866;29;20455;-90
2022/03/27 02:40:21;;;;;;;43.13;38.70;;;;;;;;;;4942386;29;20422;-90
2022/03/27 02:42:49;;;;;;;41.80;37.50;;;;;;;;;;4958962;29;20423;-91
2022/03/27 02:45:16;;;;;;;41.13;36.63;;;;;;;;;;4959042;29;20505;-90
2022/03/27 02:47:45;;;;;;;40.43;36.23;;;;;;;;;;4958263;29;20980;-90
2022/03/27 02:50:12;;;;;;;40.20;36.10;;;;;;;;;;4959103;29;20425;-90
2022/03/27 02:52:40;;;;;;;40.83;36.50;;;;;;;;;;4958994;28;20450;-90
2022/03/27 02:55:07;;;;;;;43.67;35.73;;;;;;;;;;4958800;29;20415;-90
2022/03/27 02:57:35;;;;;;;39.17;34.87;;;;;;;;;;4957423;28;20901;-91
2022/03/27 03:00:03;;;;;;;40.93;36.13;;;;;;;;;;4958741;29;20463;-90
2022/03/27 03:02:30;;;;;;;39.30;34.07;;;;;;;;;;4958439;29;20522;-91
2022/03/27 03:04:59;;;;;;;39.70;35.47;;;;;;;;;;4958560;29;20493;-91
2022/03/27 03:07:27;;;;;;;40.80;36.53;;;;;;;;;;4958825;29;20455;-90
2022/03/27 03:09:55;;;;;;;40.20;35.87;;;;;;;;;;4958117;29;20419;-90
2022/03/27 03:12:22;;;;;;;41.90;37.03;;;;;;;;;;4958497;29;20432;-89
2022/03/27 03:14:52;;;;;;;45.10;38.73;;;;;;;;;;4958520;29;20410;-91
2022/03/27 03:17:20;;;;;;;44.13;37.57;;;;;;;;;;4958345;29;20955;-90
2022/03/27 03:19:47;;;;;;;40.37;36.03;;;;;;;;;;4958770;29;20944;-90
2022/03/27 03:22:16;;;;;;;42.67;36.40;;;;;;;;;;4958373;29;20426;-90
2022/03/27 03:24:44;;;;;;;41.73;37.20;;;;;;;;;;4941079;29;20514;-91
2022/03/27 03:27:11;;;;;;;46.43;38.40;;;;;;;;;;4958550;29;20451;-90
2022/03/27 03:29:39;;;;;;;44.47;39.50;;;;;;;;;;4958435;29;20454;-91
2022/03/27 03:32:07;;;;;;;44.67;37.93;;;;;;;;;;4958559;29;20798;-91
2022/03/27 03:34:34;;;;;;;47.58;40.25;;;;;;;;;;4958622;29;20440;-90
2022/03/27 03:37:02;;;;;;;46.60;37.50;;;;;;;;;;4941813;29;20212;-90
2022/03/27 03:39:30;;;;;;;48.90;39.83;;;;;;;;;;4957226;29;20950;-90
2022/03/27 03:41:58;;;;;;;50.33;38.57;;;;;;;;;;4957726;29;20448;-90
2022/03/27 03:44:26;;;;;;;48.90;38.87;;;;;;;;;;4957963;29;20462;-90
2022/03/27 03:46:54;;;;;;;47.40;37.80;;;;;;;;;;4940625;29;20579;-91
2022/03/27 03:49:23;;;;;;;47.40;37.80;;;;;;;;;;4957755;29;20484;-90
2022/03/27 03:51:51;;;;;;;50.47;39.13;;;;;;;;;;4958141;28;20480;-90
2022/03/27 03:54:18;;;;;;;49.17;37.65;;;;;;;;;;4958069;29;20440;-90
2022/03/27 03:56:48;;;;;;;45.27;37.27;;;;;;;;;;4957733;29;20550;-89
2022/03/27 03:59:15;;;;;;;49.33;39.23;;;;;;;;;;4957774;29;20421;-90
2022/03/27 04:01:43;;;;;;;51.43;37.70;;;;;;;;;;4957809;29;20440;-91
2022/03/27 04:04:10;;;;;;;43.73;36.70;;;;;;;;;;4957716;29;20479;-90
2022/03/27 04:06:37;;;;;;;49.70;40.17;;;;;;;;;;4957413;29;20419;-90
2022/03/27 04:09:05;;;;;;;45.60;37.80;;;;;;;;;;4957392;28;20918;-90
2022/03/27 04:11:32;;;;;;;53.85;39.30;;;;;;;;;;4957766;29;20426;-90
2022/03/27 04:14:01;;;;;;;44.00;37.63;;;;;;;;;;4957673;29;20204;-90
2022/03/27 04:16:29;;;;;;;48.10;39.42;;;;;;;;;;4957383;29;20798;-91
2022/03/27 04:18:56;;;;;;;48.53;38.17;;;;;;;;;;4940096;29;20243;-90
2022/03/27 04:21:24;;;;;;;46.53;37.13;;;;;;;;;;4957280;29;20487;-91
2022/03/27 04:23:52;;;;;;;48.60;38.87;;;;;;;;;;4957030;29;20531;-90
2022/03/27 04:26:19;;;;;;;48.20;38.57;;;;;;;;;;4940436;29;20441;-90
2022/03/27 04:28:47;;;;;;;47.43;39.27;;;;;;;;;;4957208;29;20422;-91
2022/03/27 04:31:18;;;;;;;47.87;40.53;;;;;;;;;;4956831;29;20467;-90
2022/03/27 04:33:45;;;;;;;48.80;39.50;;;;;;;;;;4940779;29;20415;-89
2022/03/27 04:36:13;;;;;;;52.27;40.63;;;;;;;;;;4957205;29;20510;-90
2022/03/27 04:38:40;;;;;;;47.47;38.58;;;;;;;;;;4956817;29;21018;-90
2022/03/27 04:41:08;;;;;;;48.33;39.45;;;;;;;;;;4956930;29;20554;-91
2022/03/27 04:43:35;;;;;;;51.60;41.40;;;;;;;;;;4956590;29;20593;-90
2022/03/27 04:46:02;;;;;;;54.53;40.30;;;;;;;;;;4956582;29;20426;-91
2022/03/27 04:48:31;;;;;;;52.77;43.03;;;;;;;;;;4956541;29;20466;-89
2022/03/27 04:50:58;;;;;;;54.40;41.10;;;;;;;;;;4956913;29;20421;-91
2022/03/27 04:53:26;;;;;;;52.53;42.93;;;;;;;;;;4956563;28;20454;-90
2022/03/27 04:55:53;;;;;;;53.80;41.87;;;;;;;;;;4956719;29;20797;-89
2022/03/27 04:58:20;;;;;;;47.97;40.20;;;;;;;;;;4956791;29;20438;-90
2022/03/27 05:00:49;;;;;;;51.60;39.33;;;;;;;;;;4956688;29;20912;-90
2022/03/27 05:03:16;;;;;;;51.88;41.03;;;;;;;;;;4939130;29;20455;-90
2022/03/27 05:05:45;;;;;;;48.70;40.50;;;;;;;;;;4956160;29;20234;-91
2022/03/27 05:08:13;;;;;;;50.83;39.97;;;;;;;;;;4956124;29;20430;-90
2022/03/27 05:10:40;;;;;;;51.47;41.50;;;;;;;;;;4939071;29;20449;-90
2022/03/27 05:13:08;;;;;;;46.37;39.20;;;;;;;;;;4956469;29;20441;-91
2022/03/27 05:15:35;;;;;;;47.90;38.73;;;;;;;;;;4956459;29;20439;-90
2022/03/27 05:18:03;;;;;;;56.37;41.50;;;;;;;;;;4956490;29;20460;-90
2022/03/27 05:20:31;;;;;;;52.53;42.78;;;;;;;;;;4955704;28;20444;-90
2022/03/27 05:23:00;;;;;;;51.83;41.73;;;;;;;;;;4956314;29;20208;-90
2022/03/27 05:25:28;;;;;;;54.47;41.90;;;;;;;;;;4955652;29;20505;-91
2022/03/27 05:27:56;;;;;;;56.58;42.15;;;;;;;;;;4955973;29;20203;-90
2022/03/27 05:30:24;;;;;;;59.07;44.87;;;;;;;;;;4956066;29;20199;-89
2022/03/27 05:32:53;;;;;;;54.30;41.38;;;;;;;;;;4955933;29;20877;-89
2022/03/27 05:35:21;;;;;;;56.38;43.00;;;;;;;;;;4956200;29;20197;-90
2022/03/27 05:37:49;;;;;;;59.83;43.83;;;;;;;;;;4955889;29;20721;-90
2022/03/27 05:40:19;;;;;;;57.08;43.83;;;;;;;;;;4955630;29;20208;-91
2022/03/27 05:42:47;;;;;;;56.50;42.23;;;;;;;;;;4956396;29;20192;-88
2022/03/27 05:45:14;;;;;;;52.70;42.50;;;;;;;;;;4955937;29;21034;-88
2022/03/27 05:47:42;;;;;;;59.50;43.25;;;;;;;;;;4955790;29;20235;-88
2022/03/27 05:50:10;;;;;;;54.47;42.57;;;;;;;;;;4955705;29;20188;-88
2022/03/27 05:52:38;;;;;;;55.90;42.97;;;;;;;;;;4955731;28;20450;-88
2022/03/27 05:55:06;;;;;;;60.80;44.93;;;;;;;;;;4955889;29;20901;-88
2022/03/27 05:57:35;;;;;;;59.40;44.08;;;;;;;;;;4955669;29;20922;-89
2022/03/27 06:00:05;;;;;;;55.70;42.47;;;;;;;;;;4955847;29;20203;-89
2022/03/27 06:02:32;;;;;;;55.50;43.38;;;;;;;;;;4955715;29;20582;-89
2022/03/27 06:04:59;;;;;;;58.03;44.63;;;;;;;;;;4956104;29;20705;-89
2022/03/27 06:07:26;;;;;;;54.95;43.42;;;;;;;;;;4955914;29;20195;-89
2022/03/27 06:09:54;;;;;;;60.58;43.83;;;;;;;;;;4955650;29;20199;-89
2022/03/27 06:12:21;;;;;;;53.15;42.72;;;;;;;;;;4956083;29;20196;-89
2022/03/27 06:14:50;;;;;;;56.70;43.30;;;;;;;;;;4955983;29;20205;-89
2022/03/27 06:17:18;;;;;;;57.20;43.20;;;;;;;;;;4955360;29;20939;-88
2022/03/27 06:19:45;;;;;;;58.20;45.17;;;;;;;;;;4955801;29;20926;-89
2022/03/27 06:22:12;;;;;;;53.80;42.30;;;;;;;;;;4955686;29;20455;-90
2022/03/27 06:24:40;;;;;;;57.47;42.53;;;;;;;;;;4955417;29;20502;-89
2022/03/27 06:27:07;;;;;;;54.45;41.05;;;;;;;;;;4938505;29;20437;-89
2022/03/27 06:29:35;;;;;;;50.28;40.40;;;;;;;;;;4955447;29;20204;-90
2022/03/27 06:32:04;;;;;;;58.60;42.60;;;;;;;;;;4957107;28;20192;-89
2022/03/27 06:34:31;;;;;;;51.37;41.33;;;;;;;;;;4958805;29;20433;-90
2022/03/27 06:36:59;;;;;;;59.30;42.43;;;;;;;;;;4959281;29;20425;-90
2022/03/27 06:39:26;;;;;;;51.60;39.80;;;;;;;;;;4958629;29;20447;-90
2022/03/27 06:41:53;;;;;;;54.08;41.15;;;;;;;;;;4959242;29;20421;-90
2022/03/27 06:44:21;;;;;;;52.43;40.50;;;;;;;;;;4959015;29;20200;-90
2022/03/27 06:46:48;;;;;;;52.77;40.37;;;;;;;;;;4957215;29;20426;-90
2022/03/27 06:49:17;;;;;;;52.40;42.37;;;;;;;;;;4958144;29;20507;-90
2022/03/27 06:51:45;;;;;;;52.93;41.67;;;;;;;;;;4941591;28;20963;-90
2022/03/27 06:54:12;;;;;;;56.13;42.47;;;;;;;;;;4958861;29;20411;-90
2022/03/27 06:56:41;;;;;;;55.50;44.23;;;;;;;;;;4958606;29;20750;-90
2022/03/27 06:59:09;;;;;;;50.43;41.30;;;;;;;;;;4958437;29;20427;-90
2022/03/27 07:04:22;;;;;;;53.57;39.73;;;;;;;;;;4958520;29;20423;-92
2022/03/27 07:06:50;;;;;;;52.10;41.40;;;;;;;;;;4958386;29;20956;-91
2022/03/27 07:09:18;;;;;;;49.70;39.75;;;;;;;;;;4958131;29;20463;-91
2022/03/27 07:11:46;;;;;;;51.20;41.30;;;;;;;;;;4958849;29;20207;-89
2022/03/27 07:14:14;;;;;;;44.63;38.63;;;;;;;;;;4958537;29;20509;-89
2022/03/27 07:16:42;;;;;;;47.73;39.00;;;;;;;;;;4958295;29;20216;-90
2022/03/27 07:19:11;;;;;;;54.00;39.60;;;;;;;;;;4958409;29;20425;-89
2022/03/27 07:21:41;;;;;;;49.08;38.50;;;;;;;;;;4958621;29;20444;-90
2022/03/27 07:24:09;;;;;;;44.73;38.27;;;;;;;;;;4958544;29;21004;-90
2022/03/27 07:26:36;;;;;;;47.87;39.20;;;;;;;;;;4958427;29;20499;-88
2022/03/27 07:29:05;;;;;;;50.70;41.13;;;;;;;;;;4957794;29;20463;-89
2022/03/27 07:31:33;;;;;;;49.72;38.50;;;;;;;;;;4958288;29;20433;-90
2022/03/27 07:34:01;;;;;;;47.78;39.42;;;;;;;;;;4941368;29;20614;-89
2022/03/27 07:36:28;;;;;;;50.37;39.83;;;;;;;;;;4958249;29;20196;-89
2022/03/27 07:38:57;;;;;;;46.80;40.33;;;;;;;;;;4958186;29;20418;-90
2022/03/27 07:41:24;;;;;;;51.73;41.07;;;;;;;;;;4957989;29;20432;-90
2022/03/27 07:43:52;;;;;;;48.53;40.93;;;;;;;;;;4957432;28;20444;-89
2022/03/27 07:46:19;;;;;;;49.93;39.57;;;;;;;;;;4957767;29;20465;-90
2022/03/27 07:48:47;;;;;;;47.25;40.63;;;;;;;;;;4957485;29;20880;-89
2022/03/27 07:51:14;;;;;;;43.23;38.23;;;;;;;;;;4957903;29;20196;-89
2022/03/27 07:53:41;;;;;;;45.20;38.37;;;;;;;;;;4957462;29;20419;-89
2022/03/27 07:56:10;;;;;;;46.77;40.43;;;;;;;;;;4957468;29;20410;-89
2022/03/27 07:58:39;;;;;;;41.90;35.57;;;;;;;;;;4957658;29;20463;-89
2022/03/27 08:01:07;;;;;;;43.60;37.57;;;;;;;;;;4957455;29;20440;-89
2022/03/27 08:03:38;;;;;;;41.97;37.57;;;;;;;;;;4957592;29;20494;-89
2022/03/27 08:06:06;;;;;;;40.70;35.70;;;;;;;;;;4940261;29;20510;-89
2022/03/27 08:08:34;;;;;;;48.23;39.23;;;;;;;;;;4957487;29;20468;-91
2022/03/27 08:11:02;;;;;;;43.67;37.40;;;;;;;;;;4959634;29;20410;-93
2022/03/27 08:13:31;;;;;;;42.70;37.90;;;;;;;;;;4964056;29;20906;-93
2022/03/27 08:15:58;;;;;;;48.87;39.07;;;;;;;;;;4965834;29;20962;-93
2022/03/27 08:18:26;;;;;;;46.43;39.00;;;;;;;;;;4947557;29;20450;-94
2022/03/27 08:20:53;;;;;;;44.80;38.57;;;;;;;;;;4964471;29;20894;-95
2022/03/27 08:23:22;;;;;;;43.43;37.60;;;;;;;;;;4964972;29;20444;-94
2022/03/27 08:28:36;;;;;;;43.10;37.47;;;;;;;;;;4957565;29;20516;-94
2022/03/27 08:31:03;;;;;;;42.00;37.60;;;;;;;;;;4957773;29;20471;-95
2022/03/27 08:33:30;;;;;;;42.07;37.43;;;;;;;;;;4957301;29;20460;-94
2022/03/27 08:35:58;;;;;;;42.10;37.50;;;;;;;;;;4957179;29;20419;-94
2022/03/27 08:38:26;;;;;;;42.23;37.80;;;;;;;;;;4957498;29;20449;-94
2022/03/27 08:40:55;;;;;;;51.03;40.23;;;;;;;;;;4957685;29;20443;-94
2022/03/27 08:43:23;;;;;;;46.33;38.60;;;;;;;;;;4957183;29;20440;-94
2022/03/27 08:45:52;;;;;;;46.63;40.03;;;;;;;;;;4957837;29;20470;-94
2022/03/27 08:48:19;;;;;;;42.73;37.13;;;;;;;;;;4959538;29;20511;-94
2022/03/27 08:50:52;;;;;;;41.23;36.23;;;;;;;;;;4939438;29;20452;-93
2022/03/27 08:53:24;;;;;;;45.77;38.23;;;;;;;;;;4956887;28;20475;-94
2022/03/27 08:55:52;;;;;;;42.37;38.20;;;;;;;;;;4939956;29;20422;-92
2022/03/27 08:58:20;;;;;;;42.33;37.93;;;;;;;;;;4956986;29;20473;-92
2022/03/27 09:00:49;;;;;;;43.43;38.63;;;;;;;;;;4956658;29;20422;-93
2022/03/27 09:03:18;;;;;;;40.63;36.47;;;;;;;;;;4956455;29;20438;-92
2022/03/27 09:05:46;;;;;;;44.63;40.07;;;;;;;;;;4956770;29;20466;-92
2022/03/27 09:08:14;;;;;;;38.90;35.00;;;;;;;;;;4956888;29;20446;-91
2022/03/27 09:10:41;;;;;;;38.27;34.60;;;;;;;;;;4956334;29;20434;-92
2022/03/27 09:13:11;;;;;;;40.67;36.57;;;;;;;;;;4956658;29;20834;-92
2022/03/27 09:15:38;;;;;;;38.97;35.17;;;;;;;;;;4956320;29;20494;-93
2022/03/27 09:18:08;;;;;;;40.20;36.23;;;;;;;;;;4939228;29;20796;-92
2022/03/27 09:20:51;;;;;;;39.37;35.67;;;;;;;;;;4956584;29;20421;-93
2022/03/27 09:23:21;;;;;;;39.37;35.30;;;;;;;;;;4952203;29;20430;-92
2022/03/27 09:25:49;;;;;;;39.50;35.60;;;;;;;;;;4956165;29;20499;-92
2022/03/27 09:28:23;;;;;;;41.13;37.13;;;;;;;;;;4956239;29;20447;-92
2022/03/27 09:30:51;;;;;;;40.50;36.57;;;;;;;;;;4956406;29;20909;-94
2022/03/27 09:33:31;;;;;;;39.57;35.67;;;;;;;;;;4956141;29;20421;-92
2022/03/27 09:36:06;;;;;;;41.23;36.93;;;;;;;;;;4956009;29;21134;-91
2022/03/27 09:38:34;;;;;;;39.57;35.73;;;;;;;;;;4955738;29;20421;-91
2022/03/27 09:41:02;;;;;;;43.20;38.73;;;;;;;;;;4939357;29;20434;-92
2022/03/27 09:43:29;;;;;;;39.40;35.20;;;;;;;;;;4956757;29;20462;-91
2022/03/27 09:45:58;;;;;;;35.97;32.53;;;;;;;;;;4956326;29;20503;-91
2022/03/27 09:48:25;;;;;;;37.47;33.47;;;;;;;;;;4956086;29;20539;-88
2022/03/27 09:50:53;;;;;;;39.47;35.23;;;;;;;;;;4956523;29;20438;-90
2022/03/27 09:53:27;;;;;;;39.67;35.63;;;;;;;;;;4955721;28;20454;-89
2022/03/27 09:56:14;;;;;;;38.50;34.77;;;;;;;;;;4956281;29;20905;-89
2022/03/27 09:58:44;;;;;;;39.00;35.00;;;;;;;;;;4957235;29;20422;-94
2022/03/27 10:01:13;;;;;;;39.27;35.43;;;;;;;;;;4956674;29;20497;-89
2022/03/27 10:04:01;;;;;;;39.40;35.33;;;;;;;;;;4958083;29;20430;-89
2022/03/27 10:06:29;;;;;;;36.13;32.80;;;;;;;;;;4951087;28;20589;-87
2022/03/27 10:08:58;;;;;;;39.57;35.40;;;;;;;;;;4959419;29;20463;-95
2022/03/27 10:11:26;;;;;;;40.37;35.57;;;;;;;;;;4981730;23;20494;-89
2022/03/27 10:13:54;;;;;;;38.67;34.80;;;;;;;;;;4981110;28;20909;-95
2022/03/27 10:16:24;;;;;;;39.43;35.57;;;;;;;;;;4985235;28;20433;-92
2022/03/27 10:18:54;;;;;;;38.87;34.77;;;;;;;;;;4979733;28;20459;-95
2022/03/27 10:21:23;;;;;;;38.20;34.50;;;;;;;;;;4980374;28;20440;-95
2022/03/27 10:23:53;;;;;;;39.30;35.40;;;;;;;;;;4980460;28;20784;-86
2022/03/27 10:26:21;;;;;;;38.77;34.97;;;;;;;;;;4979893;28;20500;-87
2022/03/27 10:28:50;;;;;;;36.87;33.47;;;;;;;;;;4980093;28;20445;-91
2022/03/27 10:31:18;;;;;;;37.63;34.10;;;;;;;;;;4983401;28;20466;-93
2022/03/27 10:33:50;;;;;;;37.97;34.47;;;;;;;;;;4984973;28;20455;-94
2022/03/27 10:36:23;;;;;;;37.23;33.77;;;;;;;;;;4984475;28;20458;-94
2022/03/27 10:38:54;;;;;;;35.83;32.40;;;;;;;;;;4984743;28;20970;-93
2022/03/27 10:41:27;;;;;;;37.57;33.77;;;;;;;;;;4982847;28;20463;-90
2022/03/27 10:43:58;;;;;;;37.80;34.13;;;;;;;;;;4979062;28;20454;-89
2022/03/27 10:46:26;;;;;;;35.40;32.00;;;;;;;;;;4987556;28;20466;-93
2022/03/27 10:48:54;;;;;;;37.70;34.27;;;;;;;;;;4984847;28;20425;-94
2022/03/27 10:51:35;;;;;;;36.10;32.50;;;;;;;;;;4987654;28;20482;-93
2022/03/27 10:54:16;;;;;;;35.20;31.90;;;;;;;;;;4989906;28;20442;-95
2022/03/27 10:56:46;;;;;;;34.70;31.60;;;;;;;;;;4982832;28;20527;-92
2022/03/27 10:59:15;;;;;;;33.10;30.00;;;;;;;;;;4983735;28;20463;-92
2022/03/27 11:01:44;;;;;;;30.10;27.70;;;;;;;;;;4981977;28;20501;-92
2022/03/27 11:04:14;;;;;;;33.63;30.57;;;;;;;;;;4978849;28;20446;-86
2022/03/27 11:06:43;;;;;;;34.13;30.73;;;;;;;;;;4980447;28;20490;-94
2022/03/27 11:09:12;;;;;;;33.63;30.43;;;;;;;;;;4980323;28;20490;-93
2022/03/27 11:12:03;;;;;;;34.00;31.10;;;;;;;;;;4979033;28;20461;-95
2022/03/27 11:14:51;;;;;;;35.50;32.40;;;;;;;;;;4980102;28;20486;-90
2022/03/27 11:17:31;;;;;;;35.60;32.33;;;;;;;;;;4978156;28;20447;-90
2022/03/27 11:19:59;;;;;;;34.90;31.70;;;;;;;;;;4977490;28;20422;-88
2022/03/27 11:22:51;;;;;;;33.90;31.00;;;;;;;;;;4978671;28;20414;-88
2022/03/27 11:25:33;;;;;;;34.37;31.33;;;;;;;;;;4960322;28;20442;-93
2022/03/27 11:28:08;;;;;;;33.87;30.83;;;;;;;;;;4977253;28;20513;-86
2022/03/27 11:30:36;;;;;;;34.87;31.77;;;;;;;;;;4977355;28;20455;-92
2022/03/27 11:33:15;;;;;;;32.73;29.70;;;;;;;;;;4978526;28;20441;-95
2022/03/27 11:35:45;;;;;;;35.47;32.20;;;;;;;;;;4991418;28;20420;-96
2022/03/27 11:38:23;;;;;;;32.60;29.97;;;;;;;;;;4982313;28;20448;-89
2022/03/27 11:40:50;;;;;;;35.93;32.57;;;;;;;;;;4977962;28;20431;-93
2022/03/27 11:43:28;;;;;;;35.83;32.63;;;;;;;;;;4976019;28;20486;-84
2022/03/27 11:45:56;;;;;;;33.40;30.37;;;;;;;;;;4978239;28;20454;-90
2022/03/27 11:48:25;;;;;;;31.43;29.00;;;;;;;;;;4977591;28;20452;-89
2022/03/27 11:50:54;;;;;;;30.47;27.97;;;;;;;;;;4977165;28;20467;-86
2022/03/27 11:53:31;;;;;;;29.93;27.43;;;;;;;;;;4976828;28;20900;-89
2022/03/27 11:56:05;;;;;;;30.97;28.17;;;;;;;;;;4976198;28;20513;-85
2022/03/27 11:58:33;;;;;;;29.70;27.27;;;;;;;;;;4975354;28;20414;-83
2022/03/27 12:01:04;;;;;;;30.03;27.73;;;;;;;;;;4976499;28;20439;-86
2022/03/27 12:03:32;;;;;;;28.80;26.57;;;;;;;;;;4976939;28;20457;-96
2022/03/27 12:06:07;;;;;;;30.50;28.10;;;;;;;;;;4977042;28;20444;-91
2022/03/27 12:08:35;;;;;;;31.67;29.03;;;;;;;;;;4984475;23;20477;-90
2022/03/27 12:11:06;;;;;;;31.77;29.33;;;;;;;;;;4977510;28;20509;-94
2022/03/27 12:13:38;;;;;;;31.10;28.60;;;;;;;;;;4959255;28;20541;-90
2022/03/27 12:16:07;;;;;;;30.40;28.00;;;;;;;;;;4944104;28;20430;-89
2022/03/27 12:18:38;;;;;;;28.93;26.83;;;;;;;;;;4978192;28;20455;-84
2022/03/27 12:21:06;;;;;;;30.67;28.30;;;;;;;;;;4976851;28;20861;-92
2022/03/27 12:23:34;;;;;;;30.57;27.93;;;;;;;;;;4976149;28;20459;-91
2022/03/27 12:29:39;;;;;;;30.60;28.30;;;;;;;;;;4976409;28;20420;-88
2022/03/27 12:31:48;;;;;;;30.97;28.53;;;;;;;;;;4980647;28;20486;-91
2022/03/27 12:34:16;;;;;;;31.70;28.87;;;;;;;;;;4975866;28;20439;-84
2022/03/27 12:36:59;;;;;;;31.40;28.67;;;;;;;;;;4975910;28;20417;-92
2022/03/27 12:39:26;;;;;;;31.30;28.50;;;;;;;;;;4958048;28;20425;-86
2022/03/27 12:41:54;;;;;;;29.70;27.50;;;;;;;;;;4975931;28;20410;-89
2022/03/27 12:44:23;;;;;;;29.53;27.20;;;;;;;;;;4976518;28;20413;-87
2022/03/27 12:46:52;;;;;;;30.43;27.93;;;;;;;;;;4976157;28;20475;-91
2022/03/27 12:49:21;;;;;;;30.90;28.50;;;;;;;;;;4976216;28;20451;-95
2022/03/27 12:51:57;;;;;;;29.37;27.13;;;;;;;;;;4975932;28;20452;-90
2022/03/27 12:54:24;;;;;;;30.97;28.47;;;;;;;;;;4958661;28;20429;-87
2022/03/27 12:56:58;;;;;;;31.90;29.37;;;;;;;;;;4976033;28;20504;-88
2022/03/27 12:59:26;;;;;;;30.83;28.30;;;;;;;;;;4959292;28;20406;-92
2022/03/27 13:01:53;;;;;;;29.00;26.70;;;;;;;;;;4959987;28;20939;-95
2022/03/27 13:04:22;;;;;;;30.00;27.60;;;;;;;;;;4976879;28;20441;-93
2022/03/27 13:06:58;;;;;;;29.63;27.37;;;;;;;;;;4975938;28;20500;-91
2022/03/27 13:09:26;;;;;;;29.63;27.43;;;;;;;;;;4958652;28;20435;-86
2022/03/27 13:11:55;;;;;;;29.17;26.90;;;;;;;;;;4976845;28;20462;-95
2022/03/27 13:14:22;;;;;;;30.10;27.80;;;;;;;;;;4976715;28;20477;-95
2022/03/27 13:16:58;;;;;;;29.97;27.57;;;;;;;;;;4976902;28;20455;-91
2022/03/27 13:19:42;;;;;;;30.47;28.23;;;;;;;;;;4980927;28;20480;-93
2022/03/27 13:22:13;;;;;;;28.57;26.53;;;;;;;;;;4978591;28;20440;-92
2022/03/27 13:24:41;;;;;;;30.10;27.80;;;;;;;;;;4975264;28;20490;-92
2022/03/27 13:27:09;;;;;;;32.63;30.03;;;;;;;;;;4975673;28;20485;-91
2022/03/27 13:29:37;;;;;;;29.57;27.37;;;;;;;;;;4981054;28;20438;-92
2022/03/27 13:32:05;;;;;;;29.33;27.10;;;;;;;;;;4958610;28;20443;-93
2022/03/27 13:34:35;;;;;;;30.87;28.37;;;;;;;;;;4975491;28;20418;-86
2022/03/27 13:37:02;;;;;;;29.80;27.30;;;;;;;;;;4974799;28;20481;-86
2022/03/27 13:39:30;;;;;;;31.63;29.03;;;;;;;;;;4975223;28;20427;-86
2022/03/27 13:44:43;;;;;;;29.03;26.60;;;;;;;;;;4974878;28;20403;-86
2022/03/27 13:47:11;;;;;;;31.20;27.77;;;;;;;;;;4974754;28;20482;-86
2022/03/27 13:49:40;;;;;;;29.60;27.40;;;;;;;;;;4974777;28;20446;-86
2022/03/27 13:52:09;;;;;;;28.30;26.03;;;;;;;;;;4975475;28;20466;-88
2022/03/27 13:54:36;;;;;;;31.43;28.60;;;;;;;;;;4972423;28;20441;-86
2022/03/27 13:57:03;;;;;;;29.00;26.80;;;;;;;;;;4958746;28;20432;-87
2022/03/27 13:59:31;;;;;;;30.97;28.60;;;;;;;;;;4976050;28;20443;-87
2022/03/27 14:01:59;;;;;;;30.60;28.23;;;;;;;;;;4958935;28;20447;-86
2022/03/27 14:04:27;;;;;;;31.10;28.60;;;;;;;;;;4958300;28;20818;-87
2022/03/27 14:06:56;;;;;;;30.80;28.30;;;;;;;;;;4974891;28;20473;-86
2022/03/27 14:09:23;;;;;;;30.37;28.07;;;;;;;;;;4974317;28;20451;-86
2022/03/27 14:11:51;;;;;;;30.63;28.23;;;;;;;;;;4974499;28;20433;-87
2022/03/27 14:14:18;;;;;;;31.37;28.97;;;;;;;;;;4974825;28;20454;-87
2022/03/27 14:16:46;;;;;;;30.37;27.97;;;;;;;;;;4974598;28;20458;-88
2022/03/27 14:19:14;;;;;;;33.93;31.07;;;;;;;;;;4974536;28;20435;-88
2022/03/27 14:21:41;;;;;;;31.90;29.30;;;;;;;;;;4975231;28;20506;-90
2022/03/27 14:24:10;;;;;;;32.13;29.43;;;;;;;;;;4975306;28;20409;-91
2022/03/27 14:26:38;;;;;;;32.03;29.43;;;;;;;;;;4975261;28;20458;-90
2022/03/27 14:29:05;;;;;;;33.90;31.03;;;;;;;;;;4975164;28;20486;-91
2022/03/27 14:31:33;;;;;;;32.10;29.40;;;;;;;;;;4975007;28;20429;-93
2022/03/27 14:34:01;;;;;;;36.97;33.90;;;;;;;;;;4958051;28;20451;-91
2022/03/27 14:36:28;;;;;;;32.50;29.90;;;;;;;;;;4974761;28;20443;-93
2022/03/27 14:38:55;;;;;;;32.10;29.50;;;;;;;;;;4974245;28;20462;-89
2022/03/27 14:41:37;;;;;;;31.43;28.83;;;;;;;;;;4976445;28;20426;-95